Time;durP1;ratioP1;P1;durP2;ratioP2;P2;SDS_P1;SDS_P2;PMS_P1;PMS_P2;Temp;Humidity;BMP_temperature;BMP_pressure;BME280_temperature;BME280_humidity;BME280_pressure;Samples;Min_cycle;Max_cycle;Signal;HPM_P1;HPM_P2
2022/03/05 00:00:00;;;;;;;31.65;17.73;;;;;;;1.24;67.72;101943.00;5075456;28;20494;-57
2022/03/05 00:02:26;;;;;;;29.15;17.27;;;;;;;1.21;67.88;101941.28;5087566;28;20040;-58
2022/03/05 00:04:51;;;;;;;28.85;16.75;;;;;;;1.19;67.55;101934.38;5095481;28;20478;-60
2022/03/05 00:07:19;;;;;;;29.52;16.83;;;;;;;1.16;67.88;101942.28;5095347;28;20048;-57
2022/03/05 00:09:45;;;;;;;31.45;17.50;;;;;;;1.13;68.25;101935.34;5095495;28;20040;-60
2022/03/05 00:12:10;;;;;;;32.15;17.70;;;;;;;1.11;68.43;101940.59;5094691;28;20111;-58
2022/03/05 00:14:35;;;;;;;29.17;17.23;;;;;;;1.07;68.19;101948.56;5095086;28;20048;-59
2022/03/05 00:17:00;;;;;;;31.17;17.95;;;;;;;1.04;68.54;101953.84;5095209;28;20407;-58
2022/03/05 00:19:26;;;;;;;30.70;17.25;;;;;;;1.00;68.90;101950.44;5094033;28;20549;-58
2022/03/05 00:21:51;;;;;;;29.55;17.10;;;;;;;0.98;68.68;101956.56;5094986;28;20482;-59
2022/03/05 00:24:16;;;;;;;33.00;18.48;;;;;;;0.95;69.03;101954.88;5094924;28;20044;-58
2022/03/05 00:26:42;;;;;;;30.02;17.83;;;;;;;0.94;68.81;101954.91;5093725;28;20035;-58
2022/03/05 00:29:08;;;;;;;32.38;19.30;;;;;;;0.89;69.13;101955.84;5095124;28;20058;-58
2022/03/05 00:31:33;;;;;;;31.25;18.85;;;;;;;0.88;69.50;101953.25;5094964;28;20389;-59
2022/03/05 00:33:58;;;;;;;32.28;18.83;;;;;;;0.86;69.17;101955.06;5094832;28;20039;-58
2022/03/05 00:36:24;;;;;;;33.95;19.02;;;;;;;0.83;69.01;101952.47;5094032;28;20032;-59
2022/03/05 00:38:49;;;;;;;34.33;18.08;;;;;;;0.81;69.60;101951.66;5094507;28;20600;-59
2022/03/05 00:41:14;;;;;;;34.15;18.85;;;;;;;0.77;69.75;101940.41;5094394;28;20115;-60
2022/03/05 00:43:39;;;;;;;34.17;19.77;;;;;;;0.72;70.18;101943.09;5094314;28;20386;-60
2022/03/05 00:46:05;;;;;;;35.85;19.23;;;;;;;0.70;70.16;101949.22;5093730;28;20036;-60
2022/03/05 00:48:30;;;;;;;37.42;19.23;;;;;;;0.67;70.37;101957.13;5093473;28;20486;-60
2022/03/05 00:50:55;;;;;;;35.97;20.77;;;;;;;0.64;70.38;101949.34;5094135;28;20032;-60
2022/03/05 00:53:21;;;;;;;36.47;19.58;;;;;;;0.58;70.67;101945.06;5094706;28;20420;-59
2022/03/05 00:55:47;;;;;;;34.13;19.73;;;;;;;0.56;71.02;101944.25;5093383;28;20039;-59
2022/03/05 00:58:14;;;;;;;34.00;19.80;;;;;;;0.53;70.69;101953.00;5094379;28;20036;-59
2022/03/05 01:00:40;;;;;;;34.90;19.95;;;;;;;0.51;70.90;101943.47;5094340;28;20115;-59
2022/03/05 01:03:05;;;;;;;35.83;19.55;;;;;;;0.48;71.12;101947.00;5094090;28;20086;-60
2022/03/05 01:05:30;;;;;;;39.10;21.38;;;;;;;0.45;71.17;101943.53;5093219;28;20047;-59
2022/03/05 01:07:56;;;;;;;35.88;21.40;;;;;;;0.43;71.30;101950.56;5094068;28;20122;-60
2022/03/05 01:10:21;;;;;;;36.95;21.55;;;;;;;0.40;71.16;101950.59;5092180;28;20047;-60
2022/03/05 01:12:46;;;;;;;38.03;21.27;;;;;;;0.37;71.39;101954.16;5091817;28;20068;-59
2022/03/05 01:15:12;;;;;;;35.20;20.40;;;;;;;0.35;71.52;101948.06;5094337;28;20040;-60
2022/03/05 01:17:37;;;;;;;38.83;21.35;;;;;;;0.34;71.68;101949.81;5093946;28;20051;-59
2022/03/05 01:20:03;;;;;;;35.85;20.50;;;;;;;0.32;71.49;101945.53;5092866;28;20055;-59
2022/03/05 01:22:29;;;;;;;36.38;21.80;;;;;;;0.31;71.65;101938.56;5093700;28;20048;-60
2022/03/05 01:24:54;;;;;;;36.50;20.55;;;;;;;0.28;71.58;101942.06;5092880;28;20039;-60
2022/03/05 01:27:21;;;;;;;39.35;22.75;;;;;;;0.27;71.76;101947.34;5093630;28;20039;-59
2022/03/05 01:29:46;;;;;;;38.80;21.90;;;;;;;0.24;72.09;101948.25;5093722;28;20039;-59
2022/03/05 01:32:11;;;;;;;35.90;20.65;;;;;;;0.23;71.51;101940.44;5093731;28;20385;-59
2022/03/05 01:34:36;;;;;;;39.75;22.33;;;;;;;0.18;72.32;101944.00;5093226;28;20020;-59
2022/03/05 01:37:02;;;;;;;36.17;21.40;;;;;;;0.15;72.04;101946.66;5093601;28;20036;-59
2022/03/05 01:39:28;;;;;;;36.35;21.30;;;;;;;0.11;72.14;101950.19;5092725;28;20036;-60
2022/03/05 01:41:55;;;;;;;37.65;21.23;;;;;;;0.10;72.48;101947.59;5093792;28;20058;-59
2022/03/05 01:44:20;;;;;;;39.15;22.83;;;;;;;0.06;72.87;101944.16;5093474;28;20044;-59
2022/03/05 01:46:46;;;;;;;36.65;22.55;;;;;;;0.05;72.86;101945.06;5093583;28;20086;-59
2022/03/05 01:49:12;;;;;;;36.63;21.85;;;;;;;0.05;72.60;101945.06;5093269;28;20070;-60
2022/03/05 01:51:38;;;;;;;44.55;22.60;;;;;;;0.04;72.78;101945.09;5093284;28;20553;-60
2022/03/05 01:54:05;;;;;;;37.38;23.38;;;;;;;0.00;73.11;101941.66;5092571;28;20044;-59
2022/03/05 01:56:31;;;;;;;40.60;23.15;;;;;;;-0.04;73.09;101935.59;5093357;28;20473;-60
2022/03/05 01:58:58;;;;;;;43.88;23.25;;;;;;;-0.06;73.45;101946.97;5093458;28;20044;-59
2022/03/05 02:01:26;;;;;;;38.95;23.13;;;;;;;-0.08;73.37;101943.53;5092658;28;20078;-59
2022/03/05 02:03:52;;;;;;;39.78;22.73;;;;;;;-0.09;72.77;101944.41;5093556;28;20036;-59
2022/03/05 02:06:21;;;;;;;39.85;23.17;;;;;;;-0.11;73.28;101943.56;5092550;28;20359;-60
2022/03/05 02:08:47;;;;;;;38.88;23.30;;;;;;;-0.13;73.04;101945.31;5093470;28;20122;-60
2022/03/05 02:11:13;;;;;;;41.28;23.67;;;;;;;-0.14;73.62;101943.59;5093503;28;20039;-60
2022/03/05 02:13:38;;;;;;;40.53;23.10;;;;;;;-0.17;73.45;101938.41;5093328;28;20037;-60
2022/03/05 02:16:03;;;;;;;41.90;23.98;;;;;;;-0.18;73.39;101942.78;5092131;28;20620;-60
2022/03/05 02:18:29;;;;;;;42.17;24.02;;;;;;;-0.23;73.88;101931.56;5095076;28;20396;-60
2022/03/05 02:20:55;;;;;;;41.05;23.23;;;;;;;-0.26;74.07;101939.41;5097013;28;20032;-60
2022/03/05 02:23:20;;;;;;;40.22;24.65;;;;;;;-0.31;74.41;101931.66;5097485;28;20367;-60
2022/03/05 02:25:53;;;;;;;39.53;24.35;;;;;;;-0.34;74.45;101928.22;5079825;28;20106;-60
2022/03/05 02:28:20;;;;;;;46.08;25.60;;;;;;;-0.39;74.52;101928.28;5084417;28;20032;-60
2022/03/05 02:30:46;;;;;;;42.08;23.83;;;;;;;-0.43;74.48;101934.44;5097181;28;20134;-60
2022/03/05 02:33:11;;;;;;;40.28;23.85;;;;;;;-0.46;74.95;101934.47;5096464;28;20036;-60
2022/03/05 02:35:36;;;;;;;43.88;24.10;;;;;;;-0.49;74.65;101922.31;5096921;28;20366;-60
2022/03/05 02:38:02;;;;;;;41.38;23.20;;;;;;;-0.48;74.98;101928.38;5095790;28;20363;-60
2022/03/05 02:40:27;;;;;;;44.17;24.35;;;;;;;-0.49;74.60;101929.28;5097157;28;20040;-61
2022/03/05 02:42:52;;;;;;;43.65;24.52;;;;;;;-0.50;74.85;101924.94;5097003;28;20036;-60
2022/03/05 02:45:18;;;;;;;43.05;24.33;;;;;;;-0.52;74.20;101931.94;5097313;28;20473;-60
2022/03/05 02:47:43;;;;;;;43.63;23.92;;;;;;;-0.54;73.88;101931.94;5096389;28;20036;-60
2022/03/05 02:50:09;;;;;;;44.35;23.95;;;;;;;-0.56;74.45;101939.78;5096722;28;20367;-60
2022/03/05 02:52:38;;;;;;;43.80;25.45;;;;;;;-0.58;74.99;101933.75;5096397;28;20042;-60
2022/03/05 02:55:04;;;;;;;;;;;;;;;-0.51;72.03;101938.88;5097144;28;20036;-60
2022/03/05 02:57:29;;;;;;;38.45;23.08;;;;;;;-0.59;74.49;101937.22;5095901;28;20316;-60
2022/03/05 02:59:54;;;;;;;44.72;23.83;;;;;;;-0.60;73.87;101935.50;5092170;28;20118;-60
2022/03/05 03:02:20;;;;;;;40.50;23.30;;;;;;;-0.62;74.71;101939.00;5091317;28;20036;-60
2022/03/05 03:04:45;;;;;;;41.65;23.60;;;;;;;-0.64;74.79;101931.19;5096471;28;20036;-60
2022/03/05 03:07:10;;;;;;;40.33;24.08;;;;;;;-0.63;74.73;101929.47;5096396;28;20047;-60
2022/03/05 03:09:35;;;;;;;40.67;24.48;;;;;;;-0.63;74.71;101927.72;5095954;28;20052;-60
2022/03/05 03:12:01;;;;;;;39.38;23.48;;;;;;;-0.63;74.37;101932.09;5096330;28;20036;-60
2022/03/05 03:14:26;;;;;;;42.25;23.75;;;;;;;-0.65;74.24;101928.59;5096618;28;20032;-60
2022/03/05 03:16:51;;;;;;;40.58;23.23;;;;;;;-0.67;74.03;101935.59;5077636;28;20505;-60
2022/03/05 03:19:16;;;;;;;44.78;26.05;;;;;;;-0.69;73.97;101932.16;5096639;28;20115;-60
2022/03/05 03:21:42;;;;;;;39.45;23.38;;;;;;;-0.72;74.27;101925.22;5095365;28;20428;-61
2022/03/05 03:26:39;;;;;;;42.10;23.35;;;;;;;-0.76;74.50;101929.59;5081214;22;20042;-61
2022/03/05 03:29:04;;;;;;;41.95;23.05;;;;;;;-0.75;74.16;101923.50;5037789;28;20044;-61
2022/03/05 03:31:29;;;;;;;41.15;24.42;;;;;;;-0.79;73.86;101926.16;5055691;28;20112;-61
2022/03/05 03:33:55;;;;;;;45.58;23.92;;;;;;;-0.83;74.22;101920.13;5048732;28;20050;-61
2022/03/05 03:36:20;;;;;;;43.42;23.58;;;;;;;-0.86;74.47;101921.91;5035449;28;20043;-61
2022/03/05 03:38:45;;;;;;;43.00;24.63;;;;;;;-0.88;74.50;101926.25;5050786;28;20045;-61
2022/03/05 03:41:11;;;;;;;42.88;23.42;;;;;;;-0.97;74.62;101908.97;5055541;28;20044;-61
2022/03/05 03:43:36;;;;;;;40.90;24.15;;;;;;;-0.96;74.16;101918.53;5054779;28;20037;-61
2022/03/05 03:46:02;;;;;;;43.95;23.50;;;;;;;-1.00;74.76;101919.44;5055415;28;20036;-61
2022/03/05 03:48:27;;;;;;;41.28;24.63;;;;;;;-1.03;74.54;101927.31;5055214;28;20414;-58
2022/03/05 03:50:52;;;;;;;38.65;23.08;;;;;;;-1.08;74.14;101924.75;5054596;28;20116;-58
2022/03/05 03:53:17;;;;;;;41.17;23.00;;;;;;;-1.11;74.10;101922.19;5055256;28;20041;-58
2022/03/05 03:55:43;;;;;;;39.92;24.40;;;;;;;-1.14;75.06;101919.59;5055367;28;20072;-58
2022/03/05 03:58:08;;;;;;;43.67;25.45;;;;;;;-1.15;75.49;101920.47;5054933;28;20115;-59
2022/03/05 04:00:34;;;;;;;44.95;24.60;;;;;;;-1.18;75.81;101920.53;5040825;28;20064;-59
2022/03/05 04:02:59;;;;;;;42.92;24.20;;;;;;;-1.23;75.72;101924.91;5034661;28;20065;-59
2022/03/05 04:05:25;;;;;;;42.90;24.00;;;;;;;-1.25;75.64;101921.47;5044333;28;20124;-59
2022/03/05 04:10:34;;;;;;;45.10;25.17;;;;;;;-1.30;76.06;101924.09;5055131;28;20044;-59
2022/03/05 04:13:00;;;;;;;44.47;24.08;;;;;;;-1.34;75.98;101923.28;5054651;28;20037;-59
2022/03/05 04:15:25;;;;;;;42.50;23.90;;;;;;;-1.35;75.87;101924.16;5054200;28;20128;-59
2022/03/05 04:17:50;;;;;;;47.05;24.40;;;;;;;-1.38;76.18;101924.19;5054585;28;20035;-60
2022/03/05 04:20:16;;;;;;;39.67;23.38;;;;;;;-1.40;75.73;101925.97;5054607;28;20426;-59
2022/03/05 04:22:41;;;;;;;42.53;22.65;;;;;;;-1.42;75.88;101932.91;5054249;28;20049;-59
2022/03/05 04:25:07;;;;;;;40.15;24.65;;;;;;;-1.43;75.94;101927.69;5054233;28;20060;-59
2022/03/05 04:27:33;;;;;;;42.25;24.25;;;;;;;-1.47;75.70;101931.22;5054421;28;20033;-59
2022/03/05 04:29:58;;;;;;;42.80;25.05;;;;;;;-1.49;76.13;101932.09;5036209;28;20045;-59
2022/03/05 04:32:23;;;;;;;42.53;24.20;;;;;;;-1.54;75.88;101931.28;5054391;28;20044;-59
2022/03/05 04:34:48;;;;;;;42.47;24.40;;;;;;;-1.57;76.24;101930.44;5038333;28;20486;-59
2022/03/05 04:37:14;;;;;;;46.00;25.90;;;;;;;-1.60;76.81;101931.34;5034764;28;20049;-59
2022/03/05 04:39:39;;;;;;;47.72;25.50;;;;;;;-1.62;76.84;101933.06;5034287;28;20041;-59
2022/03/05 04:42:04;;;;;;;44.88;24.92;;;;;;;-1.63;77.12;101938.31;5033617;28;20383;-59
2022/03/05 04:44:30;;;;;;;44.38;24.00;;;;;;;-1.64;77.34;101940.03;5016465;28;20049;-60
2022/03/05 04:46:55;;;;;;;46.22;23.77;;;;;;;-1.64;77.17;101944.41;5034561;28;20037;-59
2022/03/05 04:49:21;;;;;;;45.33;25.35;;;;;;;-1.67;76.81;101947.88;5034027;28;20537;-60
2022/03/05 04:51:46;;;;;;;46.50;24.42;;;;;;;-1.69;77.28;101941.84;5034310;28;20049;-59
2022/03/05 04:54:11;;;;;;;47.10;25.00;;;;;;;-1.70;77.34;101938.38;5034082;28;20395;-59
2022/03/05 04:56:37;;;;;;;44.25;25.13;;;;;;;-1.73;76.94;101937.53;5034514;28;20037;-60
2022/03/05 04:59:03;;;;;;;46.67;24.88;;;;;;;-1.74;76.96;101943.59;5034047;28;20041;-59
2022/03/05 05:01:28;;;;;;;42.05;23.98;;;;;;;-1.77;77.09;101949.69;5033865;28;20179;-59
2022/03/05 05:03:53;;;;;;;42.60;23.88;;;;;;;-1.78;77.67;101950.59;5038906;28;20044;-59
2022/03/05 05:06:18;;;;;;;47.28;26.27;;;;;;;-1.82;78.10;101948.00;5053856;28;20041;-59
2022/03/05 05:08:44;;;;;;;48.53;26.27;;;;;;;-1.85;77.74;101946.28;5053231;28;20054;-60
2022/03/05 05:11:09;;;;;;;42.40;24.20;;;;;;;-1.88;78.40;101956.75;5034136;28;20529;-59
2022/03/05 05:13:34;;;;;;;51.47;26.75;;;;;;;-1.89;78.51;101947.19;5033970;28;20060;-59
2022/03/05 05:16:00;;;;;;;46.50;24.25;;;;;;;-1.91;78.95;101944.59;5034291;28;20970;-59
2022/03/05 05:18:25;;;;;;;47.40;25.13;;;;;;;-1.92;78.85;101944.59;5045569;28;20709;-59
2022/03/05 05:20:51;;;;;;;49.20;25.38;;;;;;;-1.93;78.70;101946.34;5043355;28;20065;-59
2022/03/05 05:23:16;;;;;;;47.50;25.92;;;;;;;-1.95;78.93;101945.50;5038687;28;20489;-59
2022/03/05 05:25:42;;;;;;;47.40;25.85;;;;;;;-1.95;78.72;101950.72;5053192;28;20133;-59
2022/03/05 05:28:07;;;;;;;48.55;24.95;;;;;;;-1.96;78.69;101950.72;5050354;28;20041;-59
2022/03/05 05:30:33;;;;;;;44.63;24.15;;;;;;;-2.00;78.98;101955.06;5033433;28;20037;-60
2022/03/05 05:32:58;;;;;;;45.80;25.65;;;;;;;-2.03;79.00;101956.81;5043825;28;20035;-59
2022/03/05 05:35:23;;;;;;;54.42;26.65;;;;;;;-2.04;79.18;101961.16;5053305;28;20029;-59
2022/03/05 05:37:49;;;;;;;48.47;25.25;;;;;;;-2.06;79.46;101960.31;5053386;28;20474;-59
2022/03/05 05:40:14;;;;;;;47.20;25.88;;;;;;;-2.08;79.21;101965.53;5035392;28;20033;-60
2022/03/05 05:42:39;;;;;;;49.92;25.77;;;;;;;-2.09;79.84;101968.16;5052806;28;20046;-59
2022/03/05 05:45:05;;;;;;;48.58;25.13;;;;;;;-2.12;79.17;101965.56;5035365;28;20044;-59
2022/03/05 05:47:30;;;;;;;46.33;25.33;;;;;;;-2.11;79.52;101972.50;5053049;28;20103;-59
2022/03/05 05:49:56;;;;;;;52.00;25.48;;;;;;;-2.13;79.79;101975.13;5034601;28;20041;-59
2022/03/05 05:52:21;;;;;;;50.22;25.25;;;;;;;-2.13;79.99;101969.03;5033250;28;20096;-59
2022/03/05 05:54:46;;;;;;;44.70;24.67;;;;;;;-2.17;79.97;101973.38;5033105;28;20069;-59
2022/03/05 05:57:12;;;;;;;45.92;24.50;;;;;;;-2.19;80.26;101977.75;5047957;28;20041;-59
2022/03/05 05:59:37;;;;;;;44.65;24.77;;;;;;;-2.20;80.37;101981.22;5052836;28;20029;-59
2022/03/05 06:02:03;;;;;;;46.92;25.15;;;;;;;-2.21;80.07;101979.50;5052982;28;20040;-59
2022/03/05 06:04:28;;;;;;;47.83;25.08;;;;;;;-2.21;80.05;101978.59;5052628;28;20541;-59
2022/03/05 06:06:53;;;;;;;48.05;24.75;;;;;;;-2.22;80.38;101972.53;5052777;28;20041;-59
2022/03/05 06:09:19;;;;;;;53.50;24.88;;;;;;;-2.25;80.47;101970.84;5052432;28;20041;-59
2022/03/05 06:11:44;;;;;;;44.65;24.33;;;;;;;-2.24;80.27;101977.75;5048001;28;20029;-60
2022/03/05 06:14:10;;;;;;;39.88;23.25;;;;;;;-2.26;79.91;101976.91;5053050;28;20066;-59
2022/03/05 06:16:35;;;;;;;46.88;24.27;;;;;;;-2.26;80.12;101974.31;5034829;28;20120;-59
2022/03/05 06:19:01;;;;;;;46.67;24.25;;;;;;;-2.26;80.33;101970.84;5052597;28;20120;-59
2022/03/05 06:21:26;;;;;;;46.58;23.90;;;;;;;-2.27;80.21;101969.09;5053026;28;20126;-59
2022/03/05 06:23:51;;;;;;;45.25;23.60;;;;;;;-2.29;80.18;101974.31;5052859;28;20454;-59
2022/03/05 06:26:16;;;;;;;48.03;24.80;;;;;;;-2.28;80.38;101973.47;5052360;28;20048;-59
2022/03/05 06:28:42;;;;;;;47.78;25.40;;;;;;;-2.30;80.11;101972.59;5048515;28;20076;-60
2022/03/05 06:31:07;;;;;;;47.15;25.13;;;;;;;-2.30;80.57;101977.81;5032891;28;20507;-60
2022/03/05 06:33:32;;;;;;;52.80;25.63;;;;;;;-2.31;80.16;101983.03;5032777;28;20048;-59
2022/03/05 06:35:58;;;;;;;49.55;25.10;;;;;;;-2.30;80.03;101988.22;5032701;28;20033;-59
2022/03/05 06:38:23;;;;;;;52.35;24.80;;;;;;;-2.29;80.41;101989.94;5033448;28;20044;-59
2022/03/05 06:40:48;;;;;;;47.30;24.23;;;;;;;-2.28;80.40;101994.28;5032623;28;20041;-59
2022/03/05 06:43:15;;;;;;;51.35;25.38;;;;;;;-2.27;80.32;101987.31;5032774;28;20045;-59
2022/03/05 06:45:40;;;;;;;49.92;25.45;;;;;;;-2.27;80.30;101992.53;5033160;28;20076;-59
2022/03/05 06:48:06;;;;;;;44.58;24.17;;;;;;;-2.26;80.40;101989.06;5032769;28;20131;-59
2022/03/05 06:50:31;;;;;;;50.97;25.45;;;;;;;-2.28;80.40;101986.47;5032752;28;20085;-59
2022/03/05 06:52:57;;;;;;;50.78;25.20;;;;;;;-2.25;80.64;101990.78;5038653;28;20049;-60
2022/03/05 06:55:23;;;;;;;51.95;24.75;;;;;;;-2.24;80.60;101990.78;5052529;28;20100;-59
2022/03/05 06:57:49;;;;;;;45.08;24.23;;;;;;;-2.23;80.09;101994.25;5052518;28;20115;-60
2022/03/05 07:00:15;;;;;;;49.65;25.13;;;;;;;-2.21;79.80;101996.81;5052609;28;20116;-60
2022/03/05 07:02:42;;;;;;;50.60;25.13;;;;;;;-2.19;80.26;101995.09;5041585;28;20095;-59
2022/03/05 07:05:09;;;;;;;48.67;25.15;;;;;;;-2.17;80.59;101996.81;5034900;28;20037;-59
2022/03/05 07:07:34;;;;;;;49.55;25.63;;;;;;;-2.16;80.88;102002.91;5018207;28;20471;-59
2022/03/05 07:09:59;;;;;;;50.80;24.58;;;;;;;-2.14;80.85;102008.97;5036164;28;20088;-59
2022/03/05 07:12:25;;;;;;;55.22;26.05;;;;;;;-2.13;81.05;102008.94;5044676;28;20045;-59
2022/03/05 07:14:50;;;;;;;47.33;24.42;;;;;;;-2.10;81.22;102013.25;5037970;28;20045;-59
2022/03/05 07:17:16;;;;;;;52.45;26.05;;;;;;;-2.09;81.25;102009.78;5055394;28;20049;-59
2022/03/05 07:19:41;;;;;;;51.30;25.45;;;;;;;-2.08;81.29;102017.59;5051543;28;20036;-59
2022/03/05 07:22:06;;;;;;;50.17;25.33;;;;;;;-2.06;81.29;102017.59;5035136;28;20537;-59
2022/03/05 07:24:32;;;;;;;52.90;25.90;;;;;;;-2.02;81.54;102016.69;5035025;28;20073;-59
2022/03/05 07:26:57;;;;;;;47.70;23.42;;;;;;;-1.99;80.95;102021.03;5038727;28;20061;-59
2022/03/05 07:29:22;;;;;;;50.78;24.25;;;;;;;-1.97;81.29;102017.53;5052187;28;20029;-59
2022/03/05 07:31:47;;;;;;;46.60;25.13;;;;;;;-1.95;81.26;102018.41;5036129;28;20379;-59
2022/03/05 07:34:13;;;;;;;53.90;26.02;;;;;;;-1.92;81.38;102020.97;5053386;28;20127;-59
2022/03/05 07:36:39;;;;;;;54.13;26.33;;;;;;;-1.89;81.21;102022.69;5051265;28;20376;-59
2022/03/05 07:39:04;;;;;;;52.53;24.95;;;;;;;-1.83;81.82;102017.47;5050208;28;20049;-59
2022/03/05 07:41:30;;;;;;;59.72;26.58;;;;;;;-1.79;81.53;102019.16;5053889;28;20025;-59
2022/03/05 07:43:55;;;;;;;55.22;28.98;;;;;;;-1.76;81.51;102013.94;5053886;28;20041;-59
2022/03/05 07:46:20;;;;;;;48.92;24.35;;;;;;;-1.70;81.34;102024.31;5053713;28;20560;-59
2022/03/05 07:48:46;;;;;;;51.75;26.63;;;;;;;-1.65;81.16;102013.00;5042383;28;20057;-59
2022/03/05 07:51:11;;;;;;;56.53;28.23;;;;;;;-1.62;81.32;102011.22;5034787;28;20057;-59
2022/03/05 07:53:36;;;;;;;56.22;27.73;;;;;;;-1.55;81.55;102006.84;5048873;28;20510;-59
2022/03/05 07:56:01;;;;;;;51.10;28.85;;;;;;;-1.50;81.40;102015.47;5047416;28;20040;-59
2022/03/05 07:58:27;;;;;;;54.83;26.83;;;;;;;-1.44;81.10;102023.25;5043999;28;20059;-59
2022/03/05 08:00:52;;;;;;;56.55;26.20;;;;;;;-1.37;81.02;102022.31;5050926;28;20384;-59
2022/03/05 08:03:17;;;;;;;57.70;27.23;;;;;;;-1.27;80.86;102027.47;5033658;28;20480;-59
2022/03/05 08:05:43;;;;;;;54.30;27.88;;;;;;;-1.19;81.01;102031.75;5052607;28;20033;-59
2022/03/05 08:08:09;;;;;;;53.90;27.73;;;;;;;-1.09;81.02;102032.53;5053414;28;20103;-59
2022/03/05 08:10:34;;;;;;;54.88;26.67;;;;;;;-0.99;80.09;102034.16;5052330;28;20044;-60
2022/03/05 08:13:00;;;;;;;57.42;28.75;;;;;;;-0.87;80.09;102043.63;5053129;28;20033;-59
2022/03/05 08:15:25;;;;;;;54.58;27.17;;;;;;;-0.73;80.13;102043.50;5051740;28;20124;-60
2022/03/05 08:17:58;;;;;;;53.85;27.50;;;;;;;-0.58;79.43;102047.69;5036742;28;20049;-59
2022/03/05 08:20:27;;;;;;;50.85;25.85;;;;;;;-0.39;79.13;102048.34;5034328;28;20541;-60
2022/03/05 08:22:52;;;;;;;51.30;25.13;;;;;;;-0.21;77.93;102045.50;5049601;28;20106;-60
2022/03/05 08:25:18;;;;;;;51.08;25.08;;;;;;;0.02;78.16;102052.19;5053194;28;20502;-60
2022/03/05 08:27:43;;;;;;;49.08;24.70;;;;;;;0.29;78.28;102048.34;5052929;28;20095;-60
2022/03/05 08:30:10;;;;;;;54.30;26.35;;;;;;;0.49;76.74;102037.59;5033035;28;20036;-60
2022/03/05 08:32:36;;;;;;;56.33;26.58;;;;;;;0.74;76.04;102048.50;5052597;28;20045;-60
2022/03/05 08:35:03;;;;;;;51.63;25.58;;;;;;;0.94;74.85;102051.69;5052467;28;20118;-60
2022/03/05 08:37:29;;;;;;;48.47;25.65;;;;;;;1.17;74.46;102056.53;5049399;28;20070;-60
2022/03/05 08:39:54;;;;;;;50.75;25.92;;;;;;;1.38;73.56;102050.03;5052220;28;20124;-60
2022/03/05 08:42:20;;;;;;;50.45;26.08;;;;;;;1.66;73.20;102048.59;5047943;28;20033;-60
2022/03/05 08:44:46;;;;;;;46.45;23.60;;;;;;;1.87;71.42;102042.97;5043991;28;20151;-60
2022/03/05 08:47:11;;;;;;;45.80;23.40;;;;;;;2.10;71.27;102040.72;5053140;28;20045;-60
2022/03/05 08:49:36;;;;;;;49.10;25.15;;;;;;;2.32;70.79;102046.34;5053146;28;20399;-60
2022/03/05 08:52:02;;;;;;;52.75;25.20;;;;;;;2.56;69.75;102038.78;5047243;28;20041;-60
2022/03/05 08:54:27;;;;;;;44.45;23.73;;;;;;;2.71;68.39;102048.91;5040029;28;20036;-60
2022/03/05 08:56:53;;;;;;;44.78;24.00;;;;;;;2.84;67.60;102040.75;5039009;28;20037;-61
2022/03/05 08:59:18;;;;;;;49.92;26.73;;;;;;;2.98;66.97;102033.38;5049011;28;20126;-60
2022/03/05 09:01:45;;;;;;;44.13;24.35;;;;;;;3.24;66.20;102037.09;5048303;28;20041;-64
2022/03/05 09:04:10;;;;;;;45.92;25.70;;;;;;;3.53;65.99;102044.19;5050847;28;20367;-60
2022/03/05 09:06:37;;;;;;;43.10;24.70;;;;;;;3.79;64.08;102047.84;5050505;28;20037;-60
2022/03/05 09:09:03;;;;;;;45.38;24.17;;;;;;;4.04;63.23;102042.72;5051377;28;20320;-60
2022/03/05 09:11:28;;;;;;;47.45;25.65;;;;;;;4.25;62.49;102042.06;5036196;28;20120;-60
2022/03/05 09:13:53;;;;;;;46.78;25.08;;;;;;;4.53;61.88;102041.22;5050964;28;20067;-61
2022/03/05 09:16:19;;;;;;;45.65;25.17;;;;;;;4.69;61.55;102046.81;5034427;28;20041;-60
2022/03/05 09:18:44;;;;;;;45.97;25.25;;;;;;;4.91;60.84;102041.72;5052972;28;20509;-60
2022/03/05 09:21:10;;;;;;;46.15;25.75;;;;;;;5.14;59.70;102034.78;5049707;28;20064;-61
2022/03/05 09:23:35;;;;;;;42.45;24.80;;;;;;;5.26;59.04;102031.75;5051352;28;20061;-60
2022/03/05 09:26:00;;;;;;;48.17;25.58;;;;;;;5.53;59.41;102024.63;5049279;28;20072;-61
2022/03/05 09:28:26;;;;;;;45.50;25.58;;;;;;;5.64;57.19;102021.56;5048295;28;20478;-60
2022/03/05 09:30:51;;;;;;;45.20;25.02;;;;;;;5.80;56.80;102021.03;5051303;28;20033;-60
2022/03/05 09:33:17;;;;;;;42.17;25.15;;;;;;;5.92;56.41;102024.03;5051918;28;20033;-60
2022/03/05 09:35:43;;;;;;;45.53;25.45;;;;;;;6.23;56.27;102024.69;5049251;28;20044;-60
2022/03/05 09:38:09;;;;;;;42.90;24.80;;;;;;;6.36;54.70;102022.41;5052337;28;20029;-60
2022/03/05 09:40:34;;;;;;;42.92;25.08;;;;;;;6.53;54.39;102019.06;5052485;28;20483;-60
2022/03/05 09:43:01;;;;;;;43.10;25.58;;;;;;;6.74;53.81;102012.06;5052157;28;20040;-60
2022/03/05 09:45:27;;;;;;;43.33;25.88;;;;;;;6.93;53.92;102014.78;5051881;28;20044;-60
2022/03/05 09:47:54;;;;;;;44.40;25.08;;;;;;;7.11;52.53;102015.78;5052265;28;20059;-61
2022/03/05 09:50:20;;;;;;;45.35;26.15;;;;;;;7.32;51.97;102012.19;5052260;28;20045;-60
2022/03/05 09:52:45;;;;;;;45.92;24.27;;;;;;;7.59;51.71;102018.06;5052267;28;20380;-60
2022/03/05 09:55:10;;;;;;;42.63;25.48;;;;;;;7.88;50.57;102015.00;5042702;28;20039;-60
2022/03/05 09:57:36;;;;;;;39.40;24.83;;;;;;;8.11;50.15;102014.78;5052364;28;20128;-60
2022/03/05 10:00:04;;;;;;;43.85;25.42;;;;;;;8.18;48.40;102019.75;5034368;28;20075;-60
2022/03/05 10:02:29;;;;;;;39.22;24.23;;;;;;;8.31;48.23;102018.22;5050861;28;20101;-60
2022/03/05 10:05:13;;;;;;;41.47;24.13;;;;;;;8.49;50.84;102016.53;5049685;28;20117;-60
2022/03/05 10:07:38;;;;;;;39.20;23.20;;;;;;;8.72;47.77;102017.19;5032498;28;20387;-60
2022/03/05 10:10:08;;;;;;;41.38;24.75;;;;;;;8.88;47.39;102016.31;5037690;28;20415;-60
2022/03/05 10:12:34;;;;;;;39.38;24.27;;;;;;;9.06;46.37;102013.69;5043509;28;20037;-60
2022/03/05 10:15:07;;;;;;;39.33;24.85;;;;;;;9.19;47.09;102014.78;5049355;28;20059;-60
2022/03/05 10:17:53;;;;;;;38.88;25.05;;;;;;;9.44;48.50;102014.34;5032595;28;20067;-60
2022/03/05 10:20:25;;;;;;;40.83;25.02;;;;;;;9.68;45.63;102008.66;5048489;28;20095;-60
2022/03/05 10:23:02;;;;;;;41.00;23.92;;;;;;;9.93;44.38;102015.28;5050662;28;20041;-60
2022/03/05 10:25:30;;;;;;;38.95;24.75;;;;;;;10.17;44.30;101997.09;5050452;28;20056;-60
2022/03/05 10:28:04;;;;;;;42.17;25.90;;;;;;;10.39;45.22;101993.25;5047767;28;20041;-60
2022/03/05 10:30:35;;;;;;;42.25;25.80;;;;;;;10.57;44.95;102002.81;5050901;28;20043;-60
2022/03/05 10:33:01;;;;;;;39.65;23.55;;;;;;;10.55;41.49;102002.91;5050494;28;20029;-61
2022/03/05 10:35:27;;;;;;;38.97;23.95;;;;;;;10.71;42.06;102004.69;5049171;28;20044;-61
2022/03/05 10:37:53;;;;;;;40.50;24.73;;;;;;;10.74;41.28;101999.16;5050665;28;20033;-61
2022/03/05 10:40:25;;;;;;;40.97;24.40;;;;;;;10.90;41.57;102007.94;5054207;28;20044;-61
2022/03/05 10:42:51;;;;;;;36.95;24.38;;;;;;;10.92;39.76;101998.09;5048861;28;20049;-60
2022/03/05 10:45:18;;;;;;;39.00;25.15;;;;;;;11.04;40.32;101996.53;5039755;28;20045;-61
2022/03/05 10:47:46;;;;;;;36.03;23.25;;;;;;;11.16;38.85;102002.00;5049680;28;20048;-60
2022/03/05 10:50:14;;;;;;;37.08;24.15;;;;;;;11.42;40.39;102000.44;5052732;28;20041;-60
2022/03/05 10:52:47;;;;;;;42.85;25.35;;;;;;;11.43;38.82;101996.84;5051273;28;20037;-61
2022/03/05 10:55:18;;;;;;;44.10;28.17;;;;;;;11.56;39.04;102008.44;5049189;28;20053;-60
2022/03/05 10:57:59;;;;;;;34.30;22.65;;;;;;;11.68;40.06;102008.63;5053653;28;20128;-61
2022/03/05 11:00:24;;;;;;;39.65;23.77;;;;;;;11.88;37.36;102002.03;5045596;28;20458;-61
2022/03/05 11:02:50;;;;;;;35.67;22.17;;;;;;;11.94;37.88;101999.88;5042467;28;20120;-60
2022/03/05 11:05:18;;;;;;;38.13;22.73;;;;;;;12.13;37.49;102004.84;5054057;28;20036;-61
2022/03/05 11:07:43;;;;;;;39.05;24.92;;;;;;;12.33;38.20;102000.88;5044437;28;20094;-60
2022/03/05 11:10:09;;;;;;;39.47;24.80;;;;;;;12.35;38.02;102000.78;5046225;28;20439;-60